SDM1029 ULAA-ULMM
Flight info
| Callsign | SDM1029 |
|---|---|
| Flight time | 1h 0m |
| Altitude | 38000 |
| Route | RILDA3J RILDA T825 SOTIS T822 LOPRA LOPRA2L |
| Aircraft | A319/M-RA73220/LB1 |
Departure
| Time | 2026-04-26 09:11 |
|---|---|
| Airport | Talagi Airport (ULAA) |
Arrival
| Time | 2026-04-26 10:11 |
|---|---|
| Airport | Emperor Nicholas II Murmansk Airport (ULMM) |
| Time | Latitude | Longitude | Altitude | Speed | Heading |
|---|---|---|---|---|---|
| 2026-04-26 08:34 | 64.59783 | 40.71388 | 40 ft | 0 kts | 6° |
| 2026-04-26 09:03 | 64.59784 | 40.71388 | 40 ft | 1 kts | 6° |
| 2026-04-26 09:04 | 64.59813 | 40.71386 | 40 ft | 8 kts | 346° |
| 2026-04-26 09:04 | 64.59835 | 40.71287 | 40 ft | 7 kts | 276° |
| 2026-04-26 09:04 | 64.59839 | 40.71187 | 40 ft | 6 kts | 276° |
| 2026-04-26 09:04 | 64.59846 | 40.71062 | 40 ft | 10 kts | 277° |
| 2026-04-26 09:05 | 64.59856 | 40.70858 | 40 ft | 14 kts | 276° |
| 2026-04-26 09:05 | 64.59866 | 40.70642 | 40 ft | 13 kts | 276° |
| 2026-04-26 09:05 | 64.59876 | 40.70444 | 40 ft | 12 kts | 276° |
| 2026-04-26 09:05 | 64.59884 | 40.70263 | 38 ft | 11 kts | 276° |
| 2026-04-26 09:06 | 64.59893 | 40.70084 | 40 ft | 12 kts | 276° |
| 2026-04-26 09:06 | 64.59904 | 40.69879 | 40 ft | 13 kts | 276° |
| 2026-04-26 09:06 | 64.59912 | 40.69685 | 39 ft | 11 kts | 276° |
| 2026-04-26 09:06 | 64.59921 | 40.69510 | 40 ft | 10 kts | 277° |
| 2026-04-26 09:07 | 64.59929 | 40.69355 | 40 ft | 9 kts | 277° |
| 2026-04-26 09:07 | 64.59936 | 40.69215 | 40 ft | 8 kts | 277° |
| 2026-04-26 09:07 | 64.59941 | 40.69095 | 39 ft | 7 kts | 275° |
| 2026-04-26 09:07 | 64.59973 | 40.69027 | 40 ft | 7 kts | 3° |
| 2026-04-26 09:08 | 64.60022 | 40.69042 | 40 ft | 1 kts | 7° |
| 2026-04-26 09:09 | 64.60025 | 40.69043 | 40 ft | 0 kts | 7° |
| 2026-04-26 09:09 | 64.60059 | 40.69053 | 40 ft | 10 kts | 7° |
| 2026-04-26 09:09 | 64.60135 | 40.69092 | 37 ft | 12 kts | 42° |
| 2026-04-26 09:10 | 64.60148 | 40.69208 | 37 ft | 0 kts | 96° |
| 2026-04-26 09:10 | 64.60145 | 40.69256 | 37 ft | 13 kts | 99° |
| 2026-04-26 09:10 | 64.60132 | 40.69528 | 37 ft | 17 kts | 95° |
| 2026-04-26 09:10 | 64.60093 | 40.70345 | 36 ft | 98 kts | 96° |
| 2026-04-26 09:11 | 64.59990 | 40.72534 | 208 ft | 158 kts | 95° |
| 2026-04-26 09:11 | 64.59892 | 40.75138 | 1128 ft | 163 kts | 92° |
| 2026-04-26 09:11 | 64.60226 | 40.77894 | 1728 ft | 203 kts | 60° |
| 2026-04-26 09:11 | 64.61358 | 40.80219 | 2255 ft | 237 kts | 22° |
| 2026-04-26 09:12 | 64.63065 | 40.80445 | 2956 ft | 260 kts | 346° |
| 2026-04-26 09:12 | 64.64774 | 40.78950 | 4061 ft | 264 kts | 334° |
| 2026-04-26 09:12 | 64.66435 | 40.77150 | 5175 ft | 269 kts | 334° |
| 2026-04-26 09:12 | 64.68147 | 40.75283 | 6258 ft | 274 kts | 333° |
| 2026-04-26 09:13 | 64.69890 | 40.73370 | 7270 ft | 279 kts | 332° |
| 2026-04-26 09:13 | 64.71725 | 40.71731 | 8347 ft | 285 kts | 339° |
| 2026-04-26 09:13 | 64.73651 | 40.70475 | 9443 ft | 290 kts | 342° |
| 2026-04-26 09:13 | 64.75660 | 40.69340 | 10168 ft | 308 kts | 343° |
| 2026-04-26 09:14 | 64.77814 | 40.68159 | 10764 ft | 325 kts | 343° |
| 2026-04-26 09:14 | 64.80034 | 40.66930 | 11687 ft | 331 kts | 343° |
| 2026-04-26 09:14 | 64.82282 | 40.65649 | 12677 ft | 334 kts | 342° |
| 2026-04-26 09:14 | 64.84553 | 40.64310 | 13618 ft | 338 kts | 341° |
| 2026-04-26 09:15 | 64.86846 | 40.62924 | 14448 ft | 343 kts | 341° |
| 2026-04-26 09:15 | 64.89165 | 40.61503 | 15318 ft | 346 kts | 341° |
| 2026-04-26 09:15 | 64.91513 | 40.60053 | 16162 ft | 351 kts | 341° |
| 2026-04-26 09:15 | 64.93889 | 40.58584 | 16973 ft | 355 kts | 340° |
| 2026-04-26 09:16 | 64.96257 | 40.57122 | 17758 ft | 359 kts | 340° |
| 2026-04-26 09:16 | 64.98685 | 40.55616 | 18451 ft | 363 kts | 340° |
| 2026-04-26 09:16 | 65.01145 | 40.54090 | 19138 ft | 367 kts | 340° |
| 2026-04-26 09:16 | 65.03625 | 40.52549 | 19824 ft | 370 kts | 340° |
| 2026-04-26 09:17 | 65.06132 | 40.50994 | 20505 ft | 374 kts | 340° |
| 2026-04-26 09:17 | 65.08664 | 40.49424 | 21220 ft | 378 kts | 339° |
| 2026-04-26 09:17 | 65.11215 | 40.47840 | 21958 ft | 380 kts | 339° |
| 2026-04-26 09:17 | 65.13788 | 40.46232 | 22671 ft | 384 kts | 339° |
| 2026-04-26 09:18 | 65.16381 | 40.44606 | 23333 ft | 387 kts | 339° |
| 2026-04-26 09:18 | 65.18999 | 40.42963 | 23914 ft | 391 kts | 339° |
| 2026-04-26 09:18 | 65.21646 | 40.41300 | 24438 ft | 395 kts | 339° |
| 2026-04-26 09:18 | 65.24316 | 40.39617 | 24940 ft | 399 kts | 339° |
| 2026-04-26 09:19 | 65.27017 | 40.37912 | 25447 ft | 404 kts | 339° |
| 2026-04-26 09:19 | 65.29745 | 40.36188 | 25931 ft | 408 kts | 340° |
| 2026-04-26 09:19 | 65.32466 | 40.34461 | 26397 ft | 412 kts | 340° |
| 2026-04-26 09:19 | 65.35252 | 40.32695 | 26860 ft | 416 kts | 340° |
| 2026-04-26 09:20 | 65.38061 | 40.30919 | 27307 ft | 420 kts | 340° |
| 2026-04-26 09:20 | 65.40900 | 40.29124 | 27764 ft | 424 kts | 341° |
| 2026-04-26 09:20 | 65.43762 | 40.27297 | 28207 ft | 427 kts | 341° |
| 2026-04-26 09:20 | 65.46649 | 40.25446 | 28647 ft | 431 kts | 341° |
| 2026-04-26 09:21 | 65.49568 | 40.23610 | 29080 ft | 435 kts | 342° |
| 2026-04-26 09:21 | 65.52524 | 40.21873 | 29502 ft | 440 kts | 343° |
| 2026-04-26 09:21 | 65.55519 | 40.20199 | 29870 ft | 443 kts | 343° |
| 2026-04-26 09:21 | 65.58545 | 40.18543 | 30215 ft | 447 kts | 344° |
| 2026-04-26 09:22 | 65.61586 | 40.16869 | 30529 ft | 451 kts | 344° |
| 2026-04-26 09:22 | 65.64647 | 40.15094 | 30835 ft | 452 kts | 340° |
| 2026-04-26 09:22 | 65.67590 | 40.12417 | 31139 ft | 451 kts | 331° |
| 2026-04-26 09:22 | 65.70316 | 40.08678 | 31477 ft | 449 kts | 322° |
| 2026-04-26 09:23 | 65.72744 | 40.04140 | 31895 ft | 445 kts | 316° |
| 2026-04-26 09:23 | 65.75127 | 39.99323 | 32309 ft | 445 kts | 317° |
| 2026-04-26 09:23 | 65.77513 | 39.94503 | 32715 ft | 445 kts | 317° |
| 2026-04-26 09:23 | 65.79894 | 39.89681 | 33122 ft | 445 kts | 317° |
| 2026-04-26 09:24 | 65.82272 | 39.84836 | 33509 ft | 446 kts | 317° |
| 2026-04-26 09:24 | 65.84649 | 39.79975 | 33820 ft | 446 kts | 317° |
| 2026-04-26 09:24 | 65.87022 | 39.75103 | 34094 ft | 446 kts | 317° |
| 2026-04-26 09:24 | 65.89399 | 39.70204 | 34345 ft | 447 kts | 317° |
| 2026-04-26 09:25 | 65.91778 | 39.65299 | 34612 ft | 447 kts | 317° |
| 2026-04-26 09:25 | 65.94162 | 39.60392 | 34896 ft | 448 kts | 317° |
| 2026-04-26 09:25 | 65.96561 | 39.55518 | 35166 ft | 448 kts | 318° |
| 2026-04-26 09:25 | 65.98970 | 39.50660 | 35433 ft | 449 kts | 319° |
| 2026-04-26 09:26 | 66.01390 | 39.45793 | 35692 ft | 449 kts | 319° |
| 2026-04-26 09:26 | 66.03801 | 39.40915 | 35933 ft | 449 kts | 319° |
| 2026-04-26 09:26 | 66.06211 | 39.36006 | 36172 ft | 450 kts | 319° |
| 2026-04-26 09:26 | 66.08620 | 39.31082 | 36398 ft | 450 kts | 319° |
| 2026-04-26 09:27 | 66.11028 | 39.26123 | 36618 ft | 451 kts | 318° |
| 2026-04-26 09:27 | 66.13432 | 39.21156 | 36840 ft | 451 kts | 319° |
| 2026-04-26 09:27 | 66.15803 | 39.16230 | 37060 ft | 451 kts | 318° |
| 2026-04-26 09:27 | 66.18198 | 39.11219 | 37260 ft | 451 kts | 318° |
| 2026-04-26 09:28 | 66.20593 | 39.06183 | 37453 ft | 451 kts | 318° |
| 2026-04-26 09:28 | 66.22985 | 39.01143 | 37611 ft | 452 kts | 318° |
| 2026-04-26 09:28 | 66.25383 | 38.96074 | 37652 ft | 451 kts | 318° |
| 2026-04-26 09:29 | 66.30152 | 38.85952 | 37646 ft | 450 kts | 318° |
| 2026-04-26 09:29 | 66.34914 | 38.75820 | 37650 ft | 450 kts | 318° |
| 2026-04-26 09:30 | 66.39664 | 38.65655 | 37650 ft | 450 kts | 318° |
| 2026-04-26 09:30 | 66.44400 | 38.55446 | 37654 ft | 449 kts | 317° |
| 2026-04-26 09:31 | 66.49133 | 38.45226 | 37655 ft | 449 kts | 318° |
| 2026-04-26 09:31 | 66.53860 | 38.34957 | 37657 ft | 450 kts | 317° |
| 2026-04-26 09:32 | 66.58551 | 38.24696 | 37661 ft | 450 kts | 317° |
| 2026-04-26 09:32 | 66.63265 | 38.14359 | 37661 ft | 450 kts | 317° |
| 2026-04-26 09:33 | 66.67978 | 38.03965 | 37672 ft | 450 kts | 317° |
| 2026-04-26 09:33 | 66.72676 | 37.93514 | 37668 ft | 449 kts | 317° |
| 2026-04-26 09:34 | 66.77356 | 37.83042 | 37667 ft | 449 kts | 317° |
| 2026-04-26 09:34 | 66.82039 | 37.72552 | 37667 ft | 449 kts | 317° |
| 2026-04-26 09:35 | 66.86711 | 37.62025 | 37666 ft | 449 kts | 317° |
| 2026-04-26 09:35 | 66.91377 | 37.51447 | 37668 ft | 449 kts | 317° |
| 2026-04-26 09:36 | 66.96031 | 37.40830 | 37667 ft | 449 kts | 316° |
| 2026-04-26 09:36 | 67.00649 | 37.30241 | 37667 ft | 449 kts | 316° |
| 2026-04-26 09:37 | 67.05291 | 37.19564 | 37669 ft | 449 kts | 317° |
| 2026-04-26 09:37 | 67.09924 | 37.08824 | 37668 ft | 449 kts | 316° |
| 2026-04-26 09:38 | 67.14544 | 36.98049 | 37668 ft | 449 kts | 316° |
| 2026-04-26 09:38 | 67.19165 | 36.87241 | 37676 ft | 448 kts | 316° |
| 2026-04-26 09:39 | 67.23778 | 36.76399 | 37677 ft | 448 kts | 316° |
| 2026-04-26 09:39 | 67.28379 | 36.65499 | 37676 ft | 448 kts | 315° |
| 2026-04-26 09:40 | 67.32970 | 36.54573 | 37677 ft | 448 kts | 316° |
| 2026-04-26 09:40 | 67.37556 | 36.43610 | 37685 ft | 448 kts | 315° |
| 2026-04-26 09:41 | 67.42139 | 36.32583 | 37691 ft | 448 kts | 315° |
| 2026-04-26 09:41 | 67.46702 | 36.21523 | 37689 ft | 448 kts | 316° |
| 2026-04-26 09:42 | 67.51264 | 36.10432 | 37690 ft | 448 kts | 315° |
| 2026-04-26 09:42 | 67.55824 | 35.99314 | 37687 ft | 448 kts | 315° |
| 2026-04-26 09:42 | 67.58102 | 35.93720 | 37481 ft | 449 kts | 315° |
| 2026-04-26 09:43 | 67.60370 | 35.88126 | 37203 ft | 446 kts | 315° |
| 2026-04-26 09:43 | 67.62614 | 35.82572 | 36730 ft | 442 kts | 314° |
| 2026-04-26 09:43 | 67.64842 | 35.77049 | 36230 ft | 439 kts | 315° |
| 2026-04-26 09:43 | 67.67060 | 35.71547 | 35744 ft | 437 kts | 315° |
| 2026-04-26 09:44 | 67.69237 | 35.66133 | 35234 ft | 435 kts | 315° |
| 2026-04-26 09:44 | 67.71424 | 35.60676 | 34716 ft | 433 kts | 315° |
| 2026-04-26 09:44 | 67.73604 | 35.55220 | 34204 ft | 431 kts | 315° |
| 2026-04-26 09:44 | 67.75769 | 35.49780 | 33682 ft | 429 kts | 314° |
| 2026-04-26 09:45 | 67.77927 | 35.44336 | 33114 ft | 426 kts | 314° |
| 2026-04-26 09:45 | 67.80060 | 35.38947 | 32619 ft | 422 kts | 314° |
| 2026-04-26 09:45 | 67.82172 | 35.33592 | 32118 ft | 418 kts | 314° |
| 2026-04-26 09:45 | 67.84258 | 35.28296 | 31617 ft | 414 kts | 314° |
| 2026-04-26 09:46 | 67.86329 | 35.23040 | 31143 ft | 410 kts | 314° |
| 2026-04-26 09:46 | 67.88375 | 35.17823 | 30666 ft | 406 kts | 314° |
| 2026-04-26 09:46 | 67.90398 | 35.12647 | 30207 ft | 402 kts | 314° |
| 2026-04-26 09:46 | 67.92400 | 35.07510 | 29748 ft | 398 kts | 314° |
| 2026-04-26 09:47 | 67.93715 | 35.04131 | 29392 ft | 395 kts | 314° |
| 2026-04-26 09:47 | 67.95676 | 34.99082 | 28965 ft | 388 kts | 315° |
| 2026-04-26 09:47 | 67.97599 | 34.94116 | 28546 ft | 383 kts | 314° |
| 2026-04-26 09:47 | 67.99497 | 34.89204 | 28142 ft | 377 kts | 315° |
| 2026-04-26 09:48 | 68.01363 | 34.84370 | 27736 ft | 372 kts | 315° |
| 2026-04-26 09:48 | 68.03209 | 34.79575 | 27330 ft | 368 kts | 315° |
| 2026-04-26 09:48 | 68.05032 | 34.74832 | 26922 ft | 364 kts | 315° |
| 2026-04-26 09:48 | 68.06836 | 34.70124 | 26525 ft | 360 kts | 315° |
| 2026-04-26 09:49 | 68.08615 | 34.65472 | 26090 ft | 356 kts | 315° |
| 2026-04-26 09:49 | 68.10381 | 34.60847 | 25686 ft | 353 kts | 315° |
| 2026-04-26 09:49 | 68.12124 | 34.56271 | 25253 ft | 349 kts | 316° |
| 2026-04-26 09:49 | 68.13852 | 34.51722 | 24832 ft | 346 kts | 316° |
| 2026-04-26 09:50 | 68.15560 | 34.47215 | 24407 ft | 343 kts | 316° |
| 2026-04-26 09:50 | 68.17254 | 34.42735 | 23945 ft | 340 kts | 316° |
| 2026-04-26 09:50 | 68.18930 | 34.38285 | 23524 ft | 337 kts | 317° |
| 2026-04-26 09:50 | 68.20591 | 34.33862 | 23048 ft | 335 kts | 317° |
| 2026-04-26 09:51 | 68.22216 | 34.29531 | 22605 ft | 330 kts | 316° |
| 2026-04-26 09:51 | 68.23841 | 34.25202 | 22172 ft | 326 kts | 317° |
| 2026-04-26 09:51 | 68.25444 | 34.20923 | 21748 ft | 322 kts | 316° |
| 2026-04-26 09:51 | 68.27026 | 34.16692 | 21337 ft | 318 kts | 316° |
| 2026-04-26 09:52 | 68.28592 | 34.12506 | 20923 ft | 315 kts | 316° |
| 2026-04-26 09:52 | 68.31666 | 34.04255 | 20122 ft | 309 kts | 316° |
| 2026-04-26 09:52 | 68.33181 | 34.00170 | 19728 ft | 306 kts | 316° |
| 2026-04-26 09:53 | 68.34688 | 33.96115 | 19332 ft | 304 kts | 316° |
| 2026-04-26 09:53 | 68.36182 | 33.92096 | 18943 ft | 302 kts | 316° |
| 2026-04-26 09:53 | 68.37666 | 33.88096 | 18554 ft | 300 kts | 316° |
| 2026-04-26 09:53 | 68.39141 | 33.84100 | 18167 ft | 299 kts | 316° |
| 2026-04-26 09:54 | 68.40606 | 33.80117 | 17759 ft | 297 kts | 316° |
| 2026-04-26 09:54 | 68.42059 | 33.76161 | 17361 ft | 294 kts | 316° |
| 2026-04-26 09:54 | 68.43480 | 33.72290 | 17002 ft | 291 kts | 316° |
| 2026-04-26 09:54 | 68.44905 | 33.68403 | 16635 ft | 289 kts | 316° |
| 2026-04-26 09:55 | 68.46316 | 33.64545 | 16280 ft | 286 kts | 316° |
| 2026-04-26 09:55 | 68.47715 | 33.60712 | 15919 ft | 285 kts | 316° |
| 2026-04-26 09:55 | 68.49105 | 33.56889 | 15572 ft | 283 kts | 315° |
| 2026-04-26 09:55 | 68.50483 | 33.53078 | 15227 ft | 282 kts | 315° |
| 2026-04-26 09:56 | 68.51852 | 33.49277 | 14882 ft | 280 kts | 315° |
| 2026-04-26 09:56 | 68.53217 | 33.45493 | 14540 ft | 279 kts | 316° |
| 2026-04-26 09:56 | 68.54606 | 33.41813 | 14195 ft | 278 kts | 317° |
| 2026-04-26 09:56 | 68.56015 | 33.38224 | 13856 ft | 276 kts | 318° |
| 2026-04-26 09:57 | 68.57428 | 33.34671 | 13509 ft | 275 kts | 318° |
| 2026-04-26 09:57 | 68.58837 | 33.31127 | 13132 ft | 274 kts | 318° |
| 2026-04-26 09:57 | 68.60233 | 33.27597 | 12792 ft | 272 kts | 318° |
| 2026-04-26 09:57 | 68.61617 | 33.24081 | 12450 ft | 270 kts | 317° |
| 2026-04-26 09:58 | 68.62986 | 33.20573 | 12104 ft | 269 kts | 316° |
| 2026-04-26 09:58 | 68.64186 | 33.16676 | 11756 ft | 268 kts | 308° |
| 2026-04-26 09:58 | 68.65303 | 33.12671 | 11385 ft | 267 kts | 308° |
| 2026-04-26 09:58 | 68.66427 | 33.08630 | 11029 ft | 265 kts | 309° |
| 2026-04-26 09:59 | 68.67539 | 33.04609 | 10673 ft | 264 kts | 308° |
| 2026-04-26 09:59 | 68.68647 | 33.00600 | 10305 ft | 263 kts | 309° |
| 2026-04-26 09:59 | 68.69752 | 32.96603 | 9935 ft | 262 kts | 309° |
| 2026-04-26 09:59 | 68.70852 | 32.92622 | 9567 ft | 261 kts | 308° |
| 2026-04-26 10:00 | 68.71690 | 32.88210 | 9140 ft | 262 kts | 289° |
| 2026-04-26 10:00 | 68.71912 | 32.83237 | 8770 ft | 264 kts | 269° |
| 2026-04-26 10:00 | 68.71478 | 32.78304 | 8359 ft | 269 kts | 249° |
| 2026-04-26 10:00 | 68.70498 | 32.73909 | 7932 ft | 270 kts | 239° |
| 2026-04-26 10:01 | 68.69446 | 32.69635 | 7501 ft | 269 kts | 239° |
| 2026-04-26 10:01 | 68.68302 | 32.65544 | 7053 ft | 272 kts | 228° |
| 2026-04-26 10:01 | 68.66800 | 32.62362 | 6596 ft | 275 kts | 212° |
| 2026-04-26 10:01 | 68.64995 | 32.60354 | 5877 ft | 283 kts | 195° |
| 2026-04-26 10:02 | 68.63062 | 32.59821 | 5433 ft | 273 kts | 178° |
| 2026-04-26 10:02 | 68.61262 | 32.60610 | 5249 ft | 253 kts | 165° |
| 2026-04-26 10:02 | 68.59629 | 32.62465 | 4538 ft | 257 kts | 149° |
| 2026-04-26 10:02 | 68.58206 | 32.65454 | 3793 ft | 260 kts | 133° |
| 2026-04-26 10:03 | 68.57119 | 32.69302 | 3069 ft | 260 kts | 118° |
| 2026-04-26 10:03 | 68.56421 | 32.73848 | 2558 ft | 258 kts | 103° |
| 2026-04-26 10:03 | 68.56161 | 32.78543 | 2417 ft | 243 kts | 89° |
| 2026-04-26 10:03 | 68.56281 | 32.82978 | 2346 ft | 226 kts | 75° |
| 2026-04-26 10:04 | 68.56717 | 32.86928 | 2296 ft | 209 kts | 63° |
| 2026-04-26 10:04 | 68.57408 | 32.90337 | 2253 ft | 200 kts | 51° |
| 2026-04-26 10:04 | 68.58243 | 32.93053 | 2213 ft | 175 kts | 39° |
| 2026-04-26 10:04 | 68.59085 | 32.95004 | 2152 ft | 144 kts | 31° |
| 2026-04-26 10:05 | 68.59881 | 32.96365 | 2083 ft | 128 kts | 21° |
| 2026-04-26 10:05 | 68.60678 | 32.97354 | 2024 ft | 123 kts | 15° |
| 2026-04-26 10:05 | 68.61485 | 32.98051 | 2005 ft | 120 kts | 8° |
| 2026-04-26 10:05 | 68.62306 | 32.98482 | 2002 ft | 120 kts | 3° |
| 2026-04-26 10:06 | 68.63130 | 32.98649 | 2000 ft | 119 kts | 356° |
| 2026-04-26 10:06 | 68.63948 | 32.98548 | 2008 ft | 118 kts | 350° |
| 2026-04-26 10:06 | 68.64754 | 32.98188 | 1997 ft | 117 kts | 343° |
| 2026-04-26 10:06 | 68.65537 | 32.97581 | 1988 ft | 118 kts | 338° |
| 2026-04-26 10:07 | 68.66289 | 32.96738 | 1998 ft | 117 kts | 332° |
| 2026-04-26 10:07 | 68.67001 | 32.95666 | 1987 ft | 118 kts | 326° |
| 2026-04-26 10:07 | 68.67686 | 32.94415 | 1995 ft | 119 kts | 324° |
| 2026-04-26 10:07 | 68.68368 | 32.93162 | 1991 ft | 118 kts | 324° |
| 2026-04-26 10:08 | 68.69053 | 32.91908 | 1992 ft | 119 kts | 324° |
| 2026-04-26 10:08 | 68.69726 | 32.90674 | 1986 ft | 118 kts | 325° |
| 2026-04-26 10:08 | 68.70411 | 32.89418 | 1904 ft | 118 kts | 325° |
| 2026-04-26 10:08 | 68.71090 | 32.88174 | 1781 ft | 117 kts | 324° |
| 2026-04-26 10:09 | 68.71766 | 32.86935 | 1641 ft | 116 kts | 324° |
| 2026-04-26 10:09 | 68.72443 | 32.85692 | 1488 ft | 117 kts | 324° |
| 2026-04-26 10:09 | 68.73121 | 32.84447 | 1317 ft | 118 kts | 324° |
| 2026-04-26 10:09 | 68.73800 | 32.83198 | 1139 ft | 117 kts | 324° |
| 2026-04-26 10:10 | 68.74482 | 32.81959 | 971 ft | 116 kts | 325° |
| 2026-04-26 10:10 | 68.75151 | 32.80712 | 797 ft | 117 kts | 324° |
| 2026-04-26 10:10 | 68.75829 | 32.79474 | 629 ft | 117 kts | 326° |
| 2026-04-26 10:10 | 68.76511 | 32.78248 | 475 ft | 117 kts | 326° |
| 2026-04-26 10:11 | 68.77197 | 32.77006 | 336 ft | 118 kts | 326° |
| 2026-04-26 10:11 | 68.77862 | 32.75774 | 274 ft | 105 kts | 326° |
| 2026-04-26 10:11 | 68.78269 | 32.75025 | 275 ft | 28 kts | 327° |
| 2026-04-26 10:11 | 68.78308 | 32.75002 | 276 ft | 4 kts | 89° |
| 2026-04-26 10:12 | 68.78317 | 32.75161 | 275 ft | 12 kts | 55° |
| 2026-04-26 10:12 | 68.78340 | 32.75251 | 275 ft | 1 kts | 55° |
| 2026-04-26 10:12 | 68.78340 | 32.75253 | 275 ft | 0 kts | 55° |
| 2026-04-26 10:13 | 68.78360 | 32.75330 | 275 ft | 13 kts | 56° |
| 2026-04-26 10:13 | 68.78414 | 32.75558 | 275 ft | 14 kts | 57° |
| 2026-04-26 10:13 | 68.78455 | 32.75739 | 275 ft | 9 kts | 72° |
| 2026-04-26 10:13 | 68.78423 | 32.75835 | 275 ft | 6 kts | 146° |
| 2026-04-26 10:14 | 68.78416 | 32.75848 | 275 ft | 0 kts | 146° |